sensor_id;sensor_type;location;lat;lon;timestamp;temperature;humidity
11650;DHT22;5881;48.522;7.682;2024-03-08T00:01:55;2.20;99.90
11650;DHT22;5881;48.522;7.682;2024-03-08T00:04:21;2.20;99.90
11650;DHT22;5881;48.522;7.682;2024-03-08T00:06:46;2.20;99.90
11650;DHT22;5881;48.522;7.682;2024-03-08T00:09:13;2.30;1.50
11650;DHT22;5881;48.522;7.682;2024-03-08T00:11:39;2.30;1.00
11650;DHT22;5881;48.522;7.682;2024-03-08T00:14:05;2.40;1.00
11650;DHT22;5881;48.522;7.682;2024-03-08T00:16:33;2.30;1.00
11650;DHT22;5881;48.522;7.682;2024-03-08T00:19:00;2.30;47.90
11650;DHT22;5881;48.522;7.682;2024-03-08T00:21:26;2.30;1.00
11650;DHT22;5881;48.522;7.682;2024-03-08T00:23:55;2.40;99.90
11650;DHT22;5881;48.522;7.682;2024-03-08T00:26:21;2.50;1.00
11650;DHT22;5881;48.522;7.682;2024-03-08T00:28:48;2.40;99.90
11650;DHT22;5881;48.522;7.682;2024-03-08T00:31:14;2.40;1.00
11650;DHT22;5881;48.522;7.682;2024-03-08T00:33:42;2.40;1.00
11650;DHT22;5881;48.522;7.682;2024-03-08T00:36:08;2.40;1.00
11650;DHT22;5881;48.522;7.682;2024-03-08T00:38:33;2.40;1.00
11650;DHT22;5881;48.522;7.682;2024-03-08T00:40:59;2.30;1.00
11650;DHT22;5881;48.522;7.682;2024-03-08T00:43:25;2.80;99.90
11650;DHT22;5881;48.522;7.682;2024-03-08T00:45:51;2.30;1.00
11650;DHT22;5881;48.522;7.682;2024-03-08T00:48:17;2.20;1.00
11650;DHT22;5881;48.522;7.682;2024-03-08T00:50:42;2.30;1.00
11650;DHT22;5881;48.522;7.682;2024-03-08T00:53:11;2.20;1.00
11650;DHT22;5881;48.522;7.682;2024-03-08T00:55:37;2.10;1.00
11650;DHT22;5881;48.522;7.682;2024-03-08T00:58:04;2.00;1.00
11650;DHT22;5881;48.522;7.682;2024-03-08T01:00:29;2.10;99.90
11650;DHT22;5881;48.522;7.682;2024-03-08T01:02:55;2.00;99.90
11650;DHT22;5881;48.522;7.682;2024-03-08T01:05:21;1.90;99.90
11650;DHT22;5881;48.522;7.682;2024-03-08T01:07:48;1.90;99.90
11650;DHT22;5881;48.522;7.682;2024-03-08T01:10:15;1.70;1.00
11650;DHT22;5881;48.522;7.682;2024-03-08T01:12:40;1.70;93.10
11650;DHT22;5881;48.522;7.682;2024-03-08T01:15:09;1.60;99.90
11650;DHT22;5881;48.522;7.682;2024-03-08T01:17:34;1.50;99.90
11650;DHT22;5881;48.522;7.682;2024-03-08T01:20:00;1.60;1.00
11650;DHT22;5881;48.522;7.682;2024-03-08T01:22:26;1.40;1.00
11650;DHT22;5881;48.522;7.682;2024-03-08T01:24:53;1.30;99.90
11650;DHT22;5881;48.522;7.682;2024-03-08T01:27:19;1.30;59.00
11650;DHT22;5881;48.522;7.682;2024-03-08T01:29:44;1.30;1.00
11650;DHT22;5881;48.522;7.682;2024-03-08T01:32:10;1.30;1.00
11650;DHT22;5881;48.522;7.682;2024-03-08T01:34:35;1.50;1.00
11650;DHT22;5881;48.522;7.682;2024-03-08T01:37:01;1.90;99.90
11650;DHT22;5881;48.522;7.682;2024-03-08T01:39:26;1.30;99.90
11650;DHT22;5881;48.522;7.682;2024-03-08T01:41:53;1.20;1.00
11650;DHT22;5881;48.522;7.682;2024-03-08T01:44:19;1.20;1.00
11650;DHT22;5881;48.522;7.682;2024-03-08T01:46:46;1.10;57.10
11650;DHT22;5881;48.522;7.682;2024-03-08T01:49:13;1.20;99.90
11650;DHT22;5881;48.522;7.682;2024-03-08T01:51:40;1.10;99.90
11650;DHT22;5881;48.522;7.682;2024-03-08T01:54:07;1.00;99.90
11650;DHT22;5881;48.522;7.682;2024-03-08T01:56:36;0.90;99.90
11650;DHT22;5881;48.522;7.682;2024-03-08T01:59:03;0.90;1.00
11650;DHT22;5881;48.522;7.682;2024-03-08T02:01:29;0.90;1.00
11650;DHT22;5881;48.522;7.682;2024-03-08T02:03:55;0.90;96.20
11650;DHT22;5881;48.522;7.682;2024-03-08T02:06:21;0.90;21.80
11650;DHT22;5881;48.522;7.682;2024-03-08T02:08:47;1.00;9.50
11650;DHT22;5881;48.522;7.682;2024-03-08T02:11:13;1.00;99.90
11650;DHT22;5881;48.522;7.682;2024-03-08T02:13:38;0.90;23.80
11650;DHT22;5881;48.522;7.682;2024-03-08T02:16:04;0.90;1.00
11650;DHT22;5881;48.522;7.682;2024-03-08T02:18:33;1.00;1.00
11650;DHT22;5881;48.522;7.682;2024-03-08T02:21:01;1.00;1.00
11650;DHT22;5881;48.522;7.682;2024-03-08T02:23:30;0.90;1.00
11650;DHT22;5881;48.522;7.682;2024-03-08T02:25:57;1.00;1.00
11650;DHT22;5881;48.522;7.682;2024-03-08T02:28:23;0.80;99.90
11650;DHT22;5881;48.522;7.682;2024-03-08T02:30:54;0.80;1.00
11650;DHT22;5881;48.522;7.682;2024-03-08T02:33:23;0.80;99.90
11650;DHT22;5881;48.522;7.682;2024-03-08T02:35:49;0.80;99.90
11650;DHT22;5881;48.522;7.682;2024-03-08T02:38:21;0.80;1.00
11650;DHT22;5881;48.522;7.682;2024-03-08T02:40:48;0.60;1.00
11650;DHT22;5881;48.522;7.682;2024-03-08T02:43:15;0.70;99.90
11650;DHT22;5881;48.522;7.682;2024-03-08T02:45:41;0.60;99.90
11650;DHT22;5881;48.522;7.682;2024-03-08T02:48:08;0.60;43.10
11650;DHT22;5881;48.522;7.682;2024-03-08T02:50:34;0.60;1.00
11650;DHT22;5881;48.522;7.682;2024-03-08T02:53:03;0.60;1.00
11650;DHT22;5881;48.522;7.682;2024-03-08T02:55:29;0.70;1.00
11650;DHT22;5881;48.522;7.682;2024-03-08T02:57:55;0.60;1.00
11650;DHT22;5881;48.522;7.682;2024-03-08T03:00:22;0.60;1.00
11650;DHT22;5881;48.522;7.682;2024-03-08T03:02:51;0.50;1.00
11650;DHT22;5881;48.522;7.682;2024-03-08T03:05:20;0.60;99.90
11650;DHT22;5881;48.522;7.682;2024-03-08T03:07:45;0.50;1.00
11650;DHT22;5881;48.522;7.682;2024-03-08T03:10:11;0.50;1.00
11650;DHT22;5881;48.522;7.682;2024-03-08T03:12:37;0.50;99.90
11650;DHT22;5881;48.522;7.682;2024-03-08T03:15:04;0.40;1.00
11650;DHT22;5881;48.522;7.682;2024-03-08T03:17:29;0.40;1.00
11650;DHT22;5881;48.522;7.682;2024-03-08T03:19:55;0.40;94.10
11650;DHT22;5881;48.522;7.682;2024-03-08T03:22:21;0.40;1.00
11650;DHT22;5881;48.522;7.682;2024-03-08T03:24:47;0.40;99.90
11650;DHT22;5881;48.522;7.682;2024-03-08T03:27:13;0.40;99.90
11650;DHT22;5881;48.522;7.682;2024-03-08T03:29:41;0.40;1.00
11650;DHT22;5881;48.522;7.682;2024-03-08T03:32:17;0.50;1.00
11650;DHT22;5881;48.522;7.682;2024-03-08T03:34:44;0.50;1.00
11650;DHT22;5881;48.522;7.682;2024-03-08T03:37:10;0.40;94.50
11650;DHT22;5881;48.522;7.682;2024-03-08T03:39:40;0.40;99.90
11650;DHT22;5881;48.522;7.682;2024-03-08T03:42:17;0.30;55.00
11650;DHT22;5881;48.522;7.682;2024-03-08T03:44:47;0.30;99.90
11650;DHT22;5881;48.522;7.682;2024-03-08T03:47:13;0.40;1.00
11650;DHT22;5881;48.522;7.682;2024-03-08T03:49:40;0.30;1.00
11650;DHT22;5881;48.522;7.682;2024-03-08T03:52:06;0.30;1.00
11650;DHT22;5881;48.522;7.682;2024-03-08T03:54:31;0.40;1.00
11650;DHT22;5881;48.522;7.682;2024-03-08T03:56:58;0.40;1.00
11650;DHT22;5881;48.522;7.682;2024-03-08T03:59:24;0.30;99.90
11650;DHT22;5881;48.522;7.682;2024-03-08T04:01:49;0.30;1.00
11650;DHT22;5881;48.522;7.682;2024-03-08T04:04:15;0.40;9.70
11650;DHT22;5881;48.522;7.682;2024-03-08T04:06:41;0.30;1.00
11650;DHT22;5881;48.522;7.682;2024-03-08T04:09:07;0.70;1.00
11650;DHT22;5881;48.522;7.682;2024-03-08T04:11:33;0.50;99.90
11650;DHT22;5881;48.522;7.682;2024-03-08T04:13:58;0.40;1.00
11650;DHT22;5881;48.522;7.682;2024-03-08T04:16:24;0.40;1.00
11650;DHT22;5881;48.522;7.682;2024-03-08T04:18:51;0.30;1.00
11650;DHT22;5881;48.522;7.682;2024-03-08T04:21:17;0.50;1.00
11650;DHT22;5881;48.522;7.682;2024-03-08T04:23:44;0.20;1.00
11650;DHT22;5881;48.522;7.682;2024-03-08T04:26:10;0.20;1.00
11650;DHT22;5881;48.522;7.682;2024-03-08T04:28:36;0.20;99.90
11650;DHT22;5881;48.522;7.682;2024-03-08T04:31:03;0.40;99.90
11650;DHT22;5881;48.522;7.682;2024-03-08T04:33:29;0.20;3.10
11650;DHT22;5881;48.522;7.682;2024-03-08T04:35:54;0.20;17.30
11650;DHT22;5881;48.522;7.682;2024-03-08T04:38:20;0.20;99.90
11650;DHT22;5881;48.522;7.682;2024-03-08T04:40:46;0.20;99.90
11650;DHT22;5881;48.522;7.682;2024-03-08T04:43:11;0.20;99.90
11650;DHT22;5881;48.522;7.682;2024-03-08T04:45:37;0.30;99.90
11650;DHT22;5881;48.522;7.682;2024-03-08T04:48:03;0.30;99.90
11650;DHT22;5881;48.522;7.682;2024-03-08T04:50:29;0.20;99.90
11650;DHT22;5881;48.522;7.682;2024-03-08T04:52:55;0.20;99.90
11650;DHT22;5881;48.522;7.682;2024-03-08T04:55:21;0.10;99.90
11650;DHT22;5881;48.522;7.682;2024-03-08T04:57:47;0.10;99.90
11650;DHT22;5881;48.522;7.682;2024-03-08T05:00:13;0.10;99.90
11650;DHT22;5881;48.522;7.682;2024-03-08T05:02:41;0.00;99.90
11650;DHT22;5881;48.522;7.682;2024-03-08T05:05:09;0.10;99.90
11650;DHT22;5881;48.522;7.682;2024-03-08T05:07:41;0.00;99.90
11650;DHT22;5881;48.522;7.682;2024-03-08T05:10:07;0.00;99.90
11650;DHT22;5881;48.522;7.682;2024-03-08T05:12:35;0.10;99.90
11650;DHT22;5881;48.522;7.682;2024-03-08T05:15:01;0.10;99.90
11650;DHT22;5881;48.522;7.682;2024-03-08T05:17:27;0.00;99.90
11650;DHT22;5881;48.522;7.682;2024-03-08T05:19:53;0.00;99.90
11650;DHT22;5881;48.522;7.682;2024-03-08T05:22:18;0.20;99.90
11650;DHT22;5881;48.522;7.682;2024-03-08T05:24:44;-0.10;99.90
11650;DHT22;5881;48.522;7.682;2024-03-08T05:27:10;-0.10;99.90
11650;DHT22;5881;48.522;7.682;2024-03-08T05:29:36;-0.10;99.90
11650;DHT22;5881;48.522;7.682;2024-03-08T05:32:03;-0.10;99.90
11650;DHT22;5881;48.522;7.682;2024-03-08T05:34:29;0.00;1.00
11650;DHT22;5881;48.522;7.682;2024-03-08T05:36:55;0.10;99.90
11650;DHT22;5881;48.522;7.682;2024-03-08T05:39:21;-0.10;99.90
11650;DHT22;5881;48.522;7.682;2024-03-08T05:41:47;-0.10;99.90
11650;DHT22;5881;48.522;7.682;2024-03-08T05:44:13;-0.10;99.90
11650;DHT22;5881;48.522;7.682;2024-03-08T05:46:39;0.00;1.00
11650;DHT22;5881;48.522;7.682;2024-03-08T05:49:06;-0.10;99.90
11650;DHT22;5881;48.522;7.682;2024-03-08T05:51:32;-0.10;99.90
11650;DHT22;5881;48.522;7.682;2024-03-08T05:54:03;-0.10;99.90
11650;DHT22;5881;48.522;7.682;2024-03-08T05:56:31;-0.10;99.90
11650;DHT22;5881;48.522;7.682;2024-03-08T05:58:57;0.00;99.90
11650;DHT22;5881;48.522;7.682;2024-03-08T06:01:27;0.10;99.90
11650;DHT22;5881;48.522;7.682;2024-03-08T06:03:53;-0.10;99.90
11650;DHT22;5881;48.522;7.682;2024-03-08T06:06:21;0.00;99.90
11650;DHT22;5881;48.522;7.682;2024-03-08T06:08:50;0.00;99.90
11650;DHT22;5881;48.522;7.682;2024-03-08T06:11:17;0.20;99.90
11650;DHT22;5881;48.522;7.682;2024-03-08T06:13:46;0.20;99.90
11650;DHT22;5881;48.522;7.682;2024-03-08T06:16:12;0.30;99.90
11650;DHT22;5881;48.522;7.682;2024-03-08T06:18:38;0.30;99.90
11650;DHT22;5881;48.522;7.682;2024-03-08T06:21:05;0.30;99.90
11650;DHT22;5881;48.522;7.682;2024-03-08T06:23:37;0.40;99.90
11650;DHT22;5881;48.522;7.682;2024-03-08T06:26:04;0.50;90.20
11650;DHT22;5881;48.522;7.682;2024-03-08T06:28:30;0.60;1.00
11650;DHT22;5881;48.522;7.682;2024-03-08T06:31:01;0.80;1.00
11650;DHT22;5881;48.522;7.682;2024-03-08T06:33:27;1.60;1.00
11650;DHT22;5881;48.522;7.682;2024-03-08T06:35:53;2.80;99.90
11650;DHT22;5881;48.522;7.682;2024-03-08T06:38:23;3.70;1.00
11650;DHT22;5881;48.522;7.682;2024-03-08T06:40:48;3.90;1.00
11650;DHT22;5881;48.522;7.682;2024-03-08T06:43:14;4.70;1.00
11650;DHT22;5881;48.522;7.682;2024-03-08T06:45:45;5.30;99.90
11650;DHT22;5881;48.522;7.682;2024-03-08T06:48:19;5.50;99.90
11650;DHT22;5881;48.522;7.682;2024-03-08T06:50:46;6.00;99.90
11650;DHT22;5881;48.522;7.682;2024-03-08T06:53:12;6.20;99.90
11650;DHT22;5881;48.522;7.682;2024-03-08T06:55:39;6.50;99.90
11650;DHT22;5881;48.522;7.682;2024-03-08T06:58:04;6.90;99.90
11650;DHT22;5881;48.522;7.682;2024-03-08T07:00:31;7.00;99.90
11650;DHT22;5881;48.522;7.682;2024-03-08T07:02:57;6.90;99.90
11650;DHT22;5881;48.522;7.682;2024-03-08T07:05:27;7.20;99.90
11650;DHT22;5881;48.522;7.682;2024-03-08T07:07:52;7.80;99.90
11650;DHT22;5881;48.522;7.682;2024-03-08T07:10:20;7.90;99.90
11650;DHT22;5881;48.522;7.682;2024-03-08T07:12:46;8.10;99.90
11650;DHT22;5881;48.522;7.682;2024-03-08T07:15:12;8.50;99.90
11650;DHT22;5881;48.522;7.682;2024-03-08T07:17:41;8.60;99.90
11650;DHT22;5881;48.522;7.682;2024-03-08T07:20:10;8.70;99.90
11650;DHT22;5881;48.522;7.682;2024-03-08T07:22:38;9.10;99.90
11650;DHT22;5881;48.522;7.682;2024-03-08T07:25:07;9.30;99.90
11650;DHT22;5881;48.522;7.682;2024-03-08T07:27:33;9.00;99.90
11650;DHT22;5881;48.522;7.682;2024-03-08T07:30:02;9.60;99.90
11650;DHT22;5881;48.522;7.682;2024-03-08T07:32:28;10.30;99.90
11650;DHT22;5881;48.522;7.682;2024-03-08T07:34:56;10.20;99.90
11650;DHT22;5881;48.522;7.682;2024-03-08T07:37:21;10.20;99.90
11650;DHT22;5881;48.522;7.682;2024-03-08T07:39:47;10.10;99.90
11650;DHT22;5881;48.522;7.682;2024-03-08T07:42:13;10.60;99.90
11650;DHT22;5881;48.522;7.682;2024-03-08T07:44:38;11.10;99.90
11650;DHT22;5881;48.522;7.682;2024-03-08T07:47:04;11.00;99.90
11650;DHT22;5881;48.522;7.682;2024-03-08T07:49:30;11.00;99.90
11650;DHT22;5881;48.522;7.682;2024-03-08T07:51:56;10.90;99.90
11650;DHT22;5881;48.522;7.682;2024-03-08T07:54:23;11.80;99.90
11650;DHT22;5881;48.522;7.682;2024-03-08T07:56:48;12.30;99.90
11650;DHT22;5881;48.522;7.682;2024-03-08T07:59:14;12.20;99.90
11650;DHT22;5881;48.522;7.682;2024-03-08T08:01:40;12.00;99.90
11650;DHT22;5881;48.522;7.682;2024-03-08T08:04:06;12.50;99.90
11650;DHT22;5881;48.522;7.682;2024-03-08T08:06:32;12.30;99.90
11650;DHT22;5881;48.522;7.682;2024-03-08T08:08:58;12.20;99.90
11650;DHT22;5881;48.522;7.682;2024-03-08T08:11:26;13.10;99.90
11650;DHT22;5881;48.522;7.682;2024-03-08T08:13:54;12.30;99.90
11650;DHT22;5881;48.522;7.682;2024-03-08T08:16:22;12.80;99.90
11650;DHT22;5881;48.522;7.682;2024-03-08T08:18:48;12.90;99.90
11650;DHT22;5881;48.522;7.682;2024-03-08T08:21:14;13.00;99.90
11650;DHT22;5881;48.522;7.682;2024-03-08T08:24:00;13.10;99.90
11650;DHT22;5881;48.522;7.682;2024-03-08T08:26:31;13.40;99.90
11650;DHT22;5881;48.522;7.682;2024-03-08T08:28:58;13.50;99.90
11650;DHT22;5881;48.522;7.682;2024-03-08T08:31:25;13.40;99.90
11650;DHT22;5881;48.522;7.682;2024-03-08T08:33:50;14.10;99.90
11650;DHT22;5881;48.522;7.682;2024-03-08T08:36:31;14.20;99.90
11650;DHT22;5881;48.522;7.682;2024-03-08T08:38:57;14.00;99.90
11650;DHT22;5881;48.522;7.682;2024-03-08T08:41:23;13.70;99.90
11650;DHT22;5881;48.522;7.682;2024-03-08T08:43:49;13.10;99.90
11650;DHT22;5881;48.522;7.682;2024-03-08T08:46:19;13.30;99.90
11650;DHT22;5881;48.522;7.682;2024-03-08T08:48:44;14.70;99.90
11650;DHT22;5881;48.522;7.682;2024-03-08T08:51:11;14.70;99.90
11650;DHT22;5881;48.522;7.682;2024-03-08T08:53:41;15.20;1.00
11650;DHT22;5881;48.522;7.682;2024-03-08T08:56:34;15.40;1.00
11650;DHT22;5881;48.522;7.682;2024-03-08T08:59:03;14.90;1.00
11650;DHT22;5881;48.522;7.682;2024-03-08T09:01:30;14.90;1.00
11650;DHT22;5881;48.522;7.682;2024-03-08T09:03:55;14.50;1.00
11650;DHT22;5881;48.522;7.682;2024-03-08T09:06:21;14.70;1.00
11650;DHT22;5881;48.522;7.682;2024-03-08T09:08:47;15.10;1.00
11650;DHT22;5881;48.522;7.682;2024-03-08T09:11:13;15.60;1.00
11650;DHT22;5881;48.522;7.682;2024-03-08T09:13:40;16.30;1.00
11650;DHT22;5881;48.522;7.682;2024-03-08T09:16:06;15.50;1.00
11650;DHT22;5881;48.522;7.682;2024-03-08T09:18:32;15.30;1.00
11650;DHT22;5881;48.522;7.682;2024-03-08T09:20:58;15.80;1.00
11650;DHT22;5881;48.522;7.682;2024-03-08T09:23:25;15.50;1.00
11650;DHT22;5881;48.522;7.682;2024-03-08T09:25:57;15.10;1.00
11650;DHT22;5881;48.522;7.682;2024-03-08T09:28:23;15.10;1.00
11650;DHT22;5881;48.522;7.682;2024-03-08T09:30:50;16.10;1.00
11650;DHT22;5881;48.522;7.682;2024-03-08T09:33:15;15.40;1.00
11650;DHT22;5881;48.522;7.682;2024-03-08T09:35:45;16.50;1.00
11650;DHT22;5881;48.522;7.682;2024-03-08T09:38:12;17.00;1.00
11650;DHT22;5881;48.522;7.682;2024-03-08T09:40:41;16.30;1.00
11650;DHT22;5881;48.522;7.682;2024-03-08T09:43:06;16.40;1.00
11650;DHT22;5881;48.522;7.682;2024-03-08T09:45:36;16.90;1.00
11650;DHT22;5881;48.522;7.682;2024-03-08T09:48:11;17.30;1.00
11650;DHT22;5881;48.522;7.682;2024-03-08T09:50:42;17.00;1.00
11650;DHT22;5881;48.522;7.682;2024-03-08T09:53:08;17.10;1.00
11650;DHT22;5881;48.522;7.682;2024-03-08T09:55:38;16.10;1.00
11650;DHT22;5881;48.522;7.682;2024-03-08T09:58:08;17.60;1.00
11650;DHT22;5881;48.522;7.682;2024-03-08T10:00:57;17.40;1.00
11650;DHT22;5881;48.522;7.682;2024-03-08T10:03:23;17.10;1.00
11650;DHT22;5881;48.522;7.682;2024-03-08T10:05:51;16.40;1.00
11650;DHT22;5881;48.522;7.682;2024-03-08T10:08:17;17.40;1.00
11650;DHT22;5881;48.522;7.682;2024-03-08T10:10:42;17.40;1.00
11650;DHT22;5881;48.522;7.682;2024-03-08T10:13:09;17.10;1.00
11650;DHT22;5881;48.522;7.682;2024-03-08T10:15:39;15.90;1.00
11650;DHT22;5881;48.522;7.682;2024-03-08T10:18:06;15.90;1.00
11650;DHT22;5881;48.522;7.682;2024-03-08T10:20:32;15.60;1.00
11650;DHT22;5881;48.522;7.682;2024-03-08T10:23:03;16.50;1.00
11650;DHT22;5881;48.522;7.682;2024-03-08T10:25:33;16.50;1.00
11650;DHT22;5881;48.522;7.682;2024-03-08T10:28:00;17.50;1.00
11650;DHT22;5881;48.522;7.682;2024-03-08T10:30:29;16.60;1.00
11650;DHT22;5881;48.522;7.682;2024-03-08T10:32:55;17.40;1.00
11650;DHT22;5881;48.522;7.682;2024-03-08T10:35:20;17.60;1.00
11650;DHT22;5881;48.522;7.682;2024-03-08T10:37:50;17.50;1.00
11650;DHT22;5881;48.522;7.682;2024-03-08T10:40:25;17.20;1.00
11650;DHT22;5881;48.522;7.682;2024-03-08T10:42:58;18.00;1.00
11650;DHT22;5881;48.522;7.682;2024-03-08T10:45:36;17.80;1.00
11650;DHT22;5881;48.522;7.682;2024-03-08T10:48:32;17.30;1.00
11650;DHT22;5881;48.522;7.682;2024-03-08T10:51:02;16.90;1.00
11650;DHT22;5881;48.522;7.682;2024-03-08T10:53:29;16.10;1.00
11650;DHT22;5881;48.522;7.682;2024-03-08T10:55:58;16.00;1.00
11650;DHT22;5881;48.522;7.682;2024-03-08T10:58:29;16.30;1.00
11650;DHT22;5881;48.522;7.682;2024-03-08T11:00:55;16.00;1.00
11650;DHT22;5881;48.522;7.682;2024-03-08T11:06:14;13.80;1.00
11650;DHT22;5881;48.522;7.682;2024-03-08T11:08:41;15.50;1.00
11650;DHT22;5881;48.522;7.682;2024-03-08T11:11:27;16.00;1.00
11650;DHT22;5881;48.522;7.682;2024-03-08T11:13:55;16.40;1.00
11650;DHT22;5881;48.522;7.682;2024-03-08T11:19:22;16.20;1.00
11650;DHT22;5881;48.522;7.682;2024-03-08T11:22:01;14.90;1.00
11650;DHT22;5881;48.522;7.682;2024-03-08T11:24:27;16.00;1.00
11650;DHT22;5881;48.522;7.682;2024-03-08T11:26:57;14.80;1.00
11650;DHT22;5881;48.522;7.682;2024-03-08T11:35:22;15.80;1.00
11650;DHT22;5881;48.522;7.682;2024-03-08T11:37:50;15.40;1.00
11650;DHT22;5881;48.522;7.682;2024-03-08T11:40:17;15.70;1.00
11650;DHT22;5881;48.522;7.682;2024-03-08T11:42:45;16.40;1.00
11650;DHT22;5881;48.522;7.682;2024-03-08T11:45:17;15.40;1.00
11650;DHT22;5881;48.522;7.682;2024-03-08T11:47:44;15.60;1.00
11650;DHT22;5881;48.522;7.682;2024-03-08T11:50:12;15.80;1.00
11650;DHT22;5881;48.522;7.682;2024-03-08T11:52:46;15.20;1.00
11650;DHT22;5881;48.522;7.682;2024-03-08T11:55:33;14.20;1.00
11650;DHT22;5881;48.522;7.682;2024-03-08T11:58:04;14.70;1.00
11650;DHT22;5881;48.522;7.682;2024-03-08T12:00:30;14.60;1.00
11650;DHT22;5881;48.522;7.682;2024-03-08T12:03:08;14.40;1.00
11650;DHT22;5881;48.522;7.682;2024-03-08T12:05:35;14.20;1.00
11650;DHT22;5881;48.522;7.682;2024-03-08T12:08:02;14.00;1.00
11650;DHT22;5881;48.522;7.682;2024-03-08T12:10:28;14.10;1.00
11650;DHT22;5881;48.522;7.682;2024-03-08T12:12:55;14.70;1.00
11650;DHT22;5881;48.522;7.682;2024-03-08T12:15:23;14.00;1.00
11650;DHT22;5881;48.522;7.682;2024-03-08T12:17:53;13.60;1.00
11650;DHT22;5881;48.522;7.682;2024-03-08T12:20:25;13.30;1.00
11650;DHT22;5881;48.522;7.682;2024-03-08T12:22:54;13.10;1.00
11650;DHT22;5881;48.522;7.682;2024-03-08T12:25:34;13.40;1.00
11650;DHT22;5881;48.522;7.682;2024-03-08T12:28:13;13.10;1.00
11650;DHT22;5881;48.522;7.682;2024-03-08T12:30:49;13.30;1.00
11650;DHT22;5881;48.522;7.682;2024-03-08T12:33:18;14.00;1.00
11650;DHT22;5881;48.522;7.682;2024-03-08T12:35:51;13.60;1.00
11650;DHT22;5881;48.522;7.682;2024-03-08T12:38:20;13.50;1.00
11650;DHT22;5881;48.522;7.682;2024-03-08T12:40:50;13.30;1.00
11650;DHT22;5881;48.522;7.682;2024-03-08T12:43:16;13.10;1.00
11650;DHT22;5881;48.522;7.682;2024-03-08T12:45:41;13.10;1.00
11650;DHT22;5881;48.522;7.682;2024-03-08T12:48:13;13.30;1.00
11650;DHT22;5881;48.522;7.682;2024-03-08T12:50:42;13.30;1.00
11650;DHT22;5881;48.522;7.682;2024-03-08T12:53:13;12.90;1.00
11650;DHT22;5881;48.522;7.682;2024-03-08T12:55:39;13.20;1.00
11650;DHT22;5881;48.522;7.682;2024-03-08T12:58:06;12.90;1.00
11650;DHT22;5881;48.522;7.682;2024-03-08T13:00:36;12.90;1.00
11650;DHT22;5881;48.522;7.682;2024-03-08T13:03:02;13.20;1.00
11650;DHT22;5881;48.522;7.682;2024-03-08T13:05:28;12.90;1.00
11650;DHT22;5881;48.522;7.682;2024-03-08T13:07:55;12.10;1.00
11650;DHT22;5881;48.522;7.682;2024-03-08T13:10:22;12.30;1.00
11650;DHT22;5881;48.522;7.682;2024-03-08T13:12:48;12.40;1.00
11650;DHT22;5881;48.522;7.682;2024-03-08T13:15:14;12.30;1.00
11650;DHT22;5881;48.522;7.682;2024-03-08T13:17:49;12.40;1.00
11650;DHT22;5881;48.522;7.682;2024-03-08T13:20:15;12.40;1.00
11650;DHT22;5881;48.522;7.682;2024-03-08T13:22:45;12.20;1.00
11650;DHT22;5881;48.522;7.682;2024-03-08T13:25:11;11.70;1.00
11650;DHT22;5881;48.522;7.682;2024-03-08T13:27:42;11.90;1.00
11650;DHT22;5881;48.522;7.682;2024-03-08T13:30:10;11.80;1.00
11650;DHT22;5881;48.522;7.682;2024-03-08T13:32:41;11.90;1.00
11650;DHT22;5881;48.522;7.682;2024-03-08T13:35:09;11.50;1.00
11650;DHT22;5881;48.522;7.682;2024-03-08T13:37:41;11.40;1.00
11650;DHT22;5881;48.522;7.682;2024-03-08T13:40:08;11.40;1.00
11650;DHT22;5881;48.522;7.682;2024-03-08T13:42:42;11.60;1.00
11650;DHT22;5881;48.522;7.682;2024-03-08T13:45:08;12.00;1.00
11650;DHT22;5881;48.522;7.682;2024-03-08T13:47:36;12.10;1.00
11650;DHT22;5881;48.522;7.682;2024-03-08T13:50:02;12.00;1.00
11650;DHT22;5881;48.522;7.682;2024-03-08T13:52:29;12.00;1.00
11650;DHT22;5881;48.522;7.682;2024-03-08T13:54:55;12.10;1.00
11650;DHT22;5881;48.522;7.682;2024-03-08T13:57:21;12.20;1.00
11650;DHT22;5881;48.522;7.682;2024-03-08T13:59:48;12.00;1.00
11650;DHT22;5881;48.522;7.682;2024-03-08T14:02:16;11.60;1.00
11650;DHT22;5881;48.522;7.682;2024-03-08T14:04:42;11.60;1.00
11650;DHT22;5881;48.522;7.682;2024-03-08T14:07:09;12.00;1.00
11650;DHT22;5881;48.522;7.682;2024-03-08T14:09:36;12.00;1.00
11650;DHT22;5881;48.522;7.682;2024-03-08T14:12:06;12.00;1.00
11650;DHT22;5881;48.522;7.682;2024-03-08T14:14:33;12.10;1.00
11650;DHT22;5881;48.522;7.682;2024-03-08T14:17:01;11.80;1.00
11650;DHT22;5881;48.522;7.682;2024-03-08T14:19:30;11.40;1.00
11650;DHT22;5881;48.522;7.682;2024-03-08T14:21:56;11.80;1.00
11650;DHT22;5881;48.522;7.682;2024-03-08T14:24:24;11.50;1.00
11650;DHT22;5881;48.522;7.682;2024-03-08T14:26:50;11.50;1.00
11650;DHT22;5881;48.522;7.682;2024-03-08T14:29:16;11.50;1.00
11650;DHT22;5881;48.522;7.682;2024-03-08T14:31:43;11.60;1.00
11650;DHT22;5881;48.522;7.682;2024-03-08T14:34:09;11.50;1.00
11650;DHT22;5881;48.522;7.682;2024-03-08T14:36:35;11.20;1.00
11650;DHT22;5881;48.522;7.682;2024-03-08T14:39:00;11.00;1.00
11650;DHT22;5881;48.522;7.682;2024-03-08T14:41:26;11.10;1.00
11650;DHT22;5881;48.522;7.682;2024-03-08T14:43:52;11.20;1.00
11650;DHT22;5881;48.522;7.682;2024-03-08T14:46:18;11.20;1.00
11650;DHT22;5881;48.522;7.682;2024-03-08T14:48:46;11.10;1.00
11650;DHT22;5881;48.522;7.682;2024-03-08T14:51:13;11.10;1.00
11650;DHT22;5881;48.522;7.682;2024-03-08T14:53:43;11.00;1.00
11650;DHT22;5881;48.522;7.682;2024-03-08T14:56:11;11.00;1.00
11650;DHT22;5881;48.522;7.682;2024-03-08T14:58:46;10.90;1.00
11650;DHT22;5881;48.522;7.682;2024-03-08T15:01:15;10.90;1.00
11650;DHT22;5881;48.522;7.682;2024-03-08T15:03:41;10.90;1.00
11650;DHT22;5881;48.522;7.682;2024-03-08T15:06:08;10.90;1.00
11650;DHT22;5881;48.522;7.682;2024-03-08T15:08:38;10.80;1.00
11650;DHT22;5881;48.522;7.682;2024-03-08T15:11:05;10.80;1.00
11650;DHT22;5881;48.522;7.682;2024-03-08T15:13:32;10.90;1.00
11650;DHT22;5881;48.522;7.682;2024-03-08T15:16:09;10.80;1.00
11650;DHT22;5881;48.522;7.682;2024-03-08T15:18:42;10.60;1.00
11650;DHT22;5881;48.522;7.682;2024-03-08T15:21:12;10.50;1.00
11650;DHT22;5881;48.522;7.682;2024-03-08T15:23:43;10.40;1.00
11650;DHT22;5881;48.522;7.682;2024-03-08T15:26:13;10.30;1.00
11650;DHT22;5881;48.522;7.682;2024-03-08T15:28:38;10.30;1.00
11650;DHT22;5881;48.522;7.682;2024-03-08T15:31:06;10.20;1.00
11650;DHT22;5881;48.522;7.682;2024-03-08T15:33:35;10.20;1.00
11650;DHT22;5881;48.522;7.682;2024-03-08T15:36:12;10.10;1.00
11650;DHT22;5881;48.522;7.682;2024-03-08T15:38:41;10.00;1.00
11650;DHT22;5881;48.522;7.682;2024-03-08T15:41:09;9.90;1.00
11650;DHT22;5881;48.522;7.682;2024-03-08T15:43:41;9.90;1.00
11650;DHT22;5881;48.522;7.682;2024-03-08T15:46:08;9.80;1.00
11650;DHT22;5881;48.522;7.682;2024-03-08T15:48:34;9.70;1.00
11650;DHT22;5881;48.522;7.682;2024-03-08T15:51:03;9.80;1.00
11650;DHT22;5881;48.522;7.682;2024-03-08T15:53:34;9.60;1.00
11650;DHT22;5881;48.522;7.682;2024-03-08T15:56:01;9.60;1.00
11650;DHT22;5881;48.522;7.682;2024-03-08T15:58:28;9.50;1.00
11650;DHT22;5881;48.522;7.682;2024-03-08T16:00:55;9.50;1.00
11650;DHT22;5881;48.522;7.682;2024-03-08T16:03:22;9.50;1.00
11650;DHT22;5881;48.522;7.682;2024-03-08T16:05:48;9.50;1.00
11650;DHT22;5881;48.522;7.682;2024-03-08T16:08:15;9.40;1.00
11650;DHT22;5881;48.522;7.682;2024-03-08T16:10:49;9.40;1.00
11650;DHT22;5881;48.522;7.682;2024-03-08T16:13:19;9.40;1.00
11650;DHT22;5881;48.522;7.682;2024-03-08T16:15:46;9.30;1.00
11650;DHT22;5881;48.522;7.682;2024-03-08T16:18:12;9.40;1.00
11650;DHT22;5881;48.522;7.682;2024-03-08T16:20:39;9.30;1.00